createdAt,value
2017-11-21T00:01:54.262Z,3.03
2017-11-21T00:04:22.563Z,3.17
2017-11-21T00:06:50.833Z,3.17
2017-11-21T00:09:19.110Z,3.20
2017-11-21T00:11:47.413Z,3.67
2017-11-21T00:14:16.254Z,3.40
2017-11-21T00:16:44.666Z,3.10
2017-11-21T00:19:12.941Z,2.90
2017-11-21T00:21:41.223Z,3.23
2017-11-21T00:24:09.510Z,2.92
2017-11-21T00:26:37.778Z,3.50
2017-11-21T00:29:06.061Z,3.20
2017-11-21T00:31:34.308Z,3.37
2017-11-21T00:34:02.643Z,3.47
2017-11-21T00:36:30.929Z,3.43
2017-11-21T00:38:59.173Z,3.50
2017-11-21T00:41:27.517Z,3.53
2017-11-21T00:43:55.756Z,3.90
2017-11-21T00:46:24.053Z,3.57
2017-11-21T00:48:52.325Z,3.57
2017-11-21T00:51:20.618Z,4.22
2017-11-21T00:53:48.916Z,3.85
2017-11-21T00:56:17.176Z,3.67
2017-11-21T00:58:45.453Z,3.80
2017-11-21T01:01:13.755Z,3.63
2017-11-21T01:03:42.065Z,3.40
2017-11-21T01:06:10.336Z,3.90
2017-11-21T01:08:38.632Z,4.03
2017-11-21T01:11:06.880Z,3.80
2017-11-21T01:13:35.172Z,3.67
2017-11-21T01:16:03.429Z,4.00
2017-11-21T01:18:31.708Z,4.60
2017-11-21T01:20:59.953Z,4.10
2017-11-21T01:23:28.228Z,4.43
2017-11-21T01:25:56.503Z,4.20
2017-11-21T01:28:24.774Z,4.23
2017-11-21T01:30:53.128Z,4.47
2017-11-21T01:33:21.365Z,3.80
2017-11-21T01:35:49.636Z,4.40
2017-11-21T01:38:17.889Z,4.90
2017-11-21T01:40:46.182Z,5.40
2017-11-21T01:43:14.464Z,4.62
2017-11-21T01:45:42.724Z,5.10
2017-11-21T01:48:10.977Z,4.80
2017-11-21T01:50:39.262Z,5.73
2017-11-21T01:53:07.534Z,4.83
2017-11-21T01:55:35.844Z,5.10
2017-11-21T01:58:04.127Z,4.90
2017-11-21T02:00:32.382Z,5.03
2017-11-21T02:03:05.286Z,5.03
2017-11-21T02:05:33.554Z,4.33
2017-11-21T02:08:01.849Z,4.60
2017-11-21T02:10:30.115Z,4.47
2017-11-21T02:12:58.385Z,4.83
2017-11-21T02:15:26.632Z,4.07
2017-11-21T02:17:54.928Z,4.60
2017-11-21T02:20:23.217Z,4.12
2017-11-21T02:22:51.495Z,4.20
2017-11-21T02:25:19.797Z,4.15
2017-11-21T02:27:48.052Z,4.55
2017-11-21T02:30:16.349Z,4.20
2017-11-21T02:32:44.631Z,4.23
2017-11-21T02:35:12.912Z,4.20
2017-11-21T02:37:41.160Z,4.10
2017-11-21T02:40:10.352Z,3.62
2017-11-21T02:42:38.626Z,4.40
2017-11-21T02:45:06.898Z,3.70
2017-11-21T02:47:35.140Z,4.00
2017-11-21T02:50:03.438Z,3.80
2017-11-21T02:52:31.687Z,4.20
2017-11-21T02:55:00.051Z,3.60
2017-11-21T02:57:28.308Z,3.20
2017-11-21T02:59:56.595Z,4.40
2017-11-21T03:02:24.861Z,5.17
2017-11-21T03:04:53.147Z,3.60
2017-11-21T03:07:21.424Z,3.10
2017-11-21T03:09:49.676Z,3.95
2017-11-21T03:12:17.939Z,3.30
2017-11-21T03:14:46.205Z,3.60
2017-11-21T03:17:14.444Z,3.58
2017-11-21T03:19:42.721Z,3.93
2017-11-21T03:22:22.614Z,4.07
2017-11-21T03:25:02.609Z,2.93
2017-11-21T03:27:34.490Z,3.47
2017-11-21T03:30:02.939Z,3.67
2017-11-21T03:32:31.191Z,3.25
2017-11-21T03:34:59.451Z,3.13
2017-11-21T03:37:27.850Z,3.47
2017-11-21T03:39:56.112Z,3.47
2017-11-21T03:42:25.169Z,3.20
2017-11-21T03:44:53.460Z,2.80
2017-11-21T03:47:21.712Z,3.17
2017-11-21T03:49:49.988Z,3.45
2017-11-21T03:52:18.257Z,3.03
2017-11-21T03:54:46.519Z,3.63
2017-11-21T03:57:14.869Z,3.90
2017-11-21T03:59:44.025Z,3.53
2017-11-21T04:02:12.364Z,3.87
2017-11-21T04:04:40.651Z,3.33
2017-11-21T04:07:08.915Z,3.43
2017-11-21T04:09:37.168Z,3.20
2017-11-21T04:12:05.640Z,3.03
2017-11-21T04:14:33.890Z,3.60
2017-11-21T04:17:02.171Z,3.90
2017-11-21T04:19:30.505Z,3.40
2017-11-21T04:21:58.800Z,3.40
2017-11-21T04:24:27.109Z,3.43
2017-11-21T04:26:55.344Z,2.80
2017-11-21T04:29:23.624Z,2.70
2017-11-21T04:31:51.904Z,2.70
2017-11-21T04:34:20.181Z,3.20
2017-11-21T04:36:48.444Z,2.83
2017-11-21T04:39:16.718Z,3.43
2017-11-21T04:41:44.969Z,3.30
2017-11-21T04:44:13.246Z,3.27
2017-11-21T04:46:41.525Z,2.70
2017-11-21T04:49:09.825Z,2.85
2017-11-21T04:51:38.117Z,2.67
2017-11-21T04:54:06.393Z,2.47
2017-11-21T04:56:34.663Z,3.20
2017-11-21T04:59:02.924Z,2.53
2017-11-21T05:01:31.212Z,2.47
2017-11-21T05:03:59.470Z,2.27
2017-11-21T05:06:27.736Z,2.57
2017-11-21T05:08:55.984Z,2.53
2017-11-21T05:11:24.268Z,2.20
2017-11-21T05:13:52.565Z,2.50
2017-11-21T05:16:20.808Z,2.22
2017-11-21T05:18:49.098Z,2.65
2017-11-21T05:21:17.360Z,2.33
2017-11-21T05:23:45.629Z,1.97
2017-11-21T05:26:13.891Z,2.17
2017-11-21T05:28:42.166Z,2.17
2017-11-21T05:31:10.484Z,1.83
2017-11-21T05:33:40.532Z,1.70
2017-11-21T05:36:08.817Z,2.10
2017-11-21T05:38:37.078Z,1.70
2017-11-21T05:41:05.612Z,2.03
2017-11-21T05:43:33.908Z,1.97
2017-11-21T05:46:02.215Z,2.23
2017-11-21T05:48:30.515Z,2.20
2017-11-21T05:50:58.788Z,2.07
2017-11-21T05:53:27.040Z,2.17
2017-11-21T05:55:55.333Z,2.20
2017-11-21T05:58:23.608Z,1.80
2017-11-21T06:00:51.910Z,2.23
2017-11-21T06:03:20.163Z,2.28
2017-11-21T06:05:48.448Z,2.10
2017-11-21T06:08:17.240Z,2.10
2017-11-21T06:10:45.515Z,2.17
2017-11-21T06:13:13.957Z,2.10
2017-11-21T06:15:42.353Z,1.93
2017-11-21T06:18:10.637Z,1.90
2017-11-21T06:20:38.876Z,2.00
2017-11-21T06:23:07.157Z,2.23
2017-11-21T06:25:35.441Z,2.57
2017-11-21T06:28:03.789Z,1.80
2017-11-21T06:30:32.208Z,2.00
2017-11-21T06:33:00.644Z,1.87
2017-11-21T06:35:29.752Z,1.63
2017-11-21T06:37:58.076Z,2.27
2017-11-21T06:40:26.356Z,1.90
2017-11-21T06:42:54.643Z,1.80
2017-11-21T06:45:22.944Z,1.97
2017-11-21T06:47:51.185Z,1.70
2017-11-21T06:50:19.495Z,1.83
2017-11-21T06:52:47.813Z,1.80
2017-11-21T06:55:16.070Z,1.53
2017-11-21T06:57:44.365Z,1.73
2017-11-21T07:00:12.684Z,1.95
2017-11-21T07:02:40.979Z,1.40
2017-11-21T07:05:10.233Z,2.10
2017-11-21T07:07:39.416Z,1.83
2017-11-21T07:10:07.698Z,1.93
2017-11-21T07:12:35.970Z,1.60
2017-11-21T07:15:04.224Z,1.80
2017-11-21T07:17:32.500Z,3.70
2017-11-21T07:20:00.795Z,1.63
2017-11-21T07:22:29.074Z,1.57
2017-11-21T07:24:57.383Z,1.30
2017-11-21T07:27:25.659Z,1.60
2017-11-21T07:29:53.933Z,2.13
2017-11-21T07:32:22.326Z,2.10
2017-11-21T07:34:50.568Z,1.90
2017-11-21T07:37:18.888Z,1.70
2017-11-21T07:39:47.253Z,1.70
2017-11-21T07:42:15.518Z,1.73
2017-11-21T07:44:44.693Z,2.00
2017-11-21T07:47:13.066Z,1.60
2017-11-21T07:49:41.378Z,1.87
2017-11-21T07:52:09.633Z,2.10
2017-11-21T07:54:38.018Z,1.80
2017-11-21T07:57:06.265Z,2.30
2017-11-21T07:59:34.559Z,1.97
2017-11-21T08:02:02.846Z,2.10
2017-11-21T08:04:31.128Z,2.03
2017-11-21T08:06:59.413Z,2.03
2017-11-21T08:09:27.724Z,1.70
2017-11-21T08:11:56.030Z,1.57
2017-11-21T08:14:24.346Z,1.73
2017-11-21T08:16:52.622Z,1.60
2017-11-21T08:19:20.932Z,1.23
2017-11-21T08:21:49.221Z,1.70
2017-11-21T08:24:17.520Z,1.58
2017-11-21T08:26:45.972Z,2.10
2017-11-21T08:29:14.357Z,1.42
2017-11-21T08:31:42.641Z,1.80
2017-11-21T08:34:10.907Z,2.25
2017-11-21T08:36:39.197Z,1.60
2017-11-21T08:39:07.526Z,1.90
2017-11-21T08:41:35.860Z,1.53
2017-11-21T08:44:04.299Z,2.07
2017-11-21T08:46:32.589Z,1.53
2017-11-21T08:49:00.872Z,1.90
2017-11-21T08:51:29.128Z,1.30
2017-11-21T08:53:58.065Z,1.60
2017-11-21T08:56:26.315Z,1.45
2017-11-21T08:58:54.623Z,1.60
2017-11-21T09:01:22.884Z,1.97
2017-11-21T09:03:51.161Z,1.30
2017-11-21T09:06:20.075Z,2.90
2017-11-21T09:08:48.330Z,1.30
2017-11-21T09:11:16.605Z,1.70
2017-11-21T09:13:44.874Z,1.43
2017-11-21T09:16:13.149Z,1.20
2017-11-21T09:18:41.721Z,1.97
2017-11-21T09:21:10.005Z,2.00
2017-11-21T09:23:38.315Z,1.77
2017-11-21T09:26:06.632Z,1.77
2017-11-21T09:28:34.941Z,1.57
2017-11-21T09:31:03.198Z,1.50
2017-11-21T09:33:31.493Z,1.50
2017-11-21T09:35:59.765Z,1.70
2017-11-21T09:38:28.058Z,1.50
2017-11-21T09:40:56.323Z,1.60
2017-11-21T09:43:24.627Z,1.50
2017-11-21T09:45:53.008Z,1.55
2017-11-21T09:48:21.290Z,1.42
2017-11-21T09:50:49.566Z,2.00
2017-11-21T09:53:18.231Z,2.25
2017-11-21T09:55:46.497Z,2.00
2017-11-21T09:58:14.822Z,2.30
2017-11-21T10:00:43.128Z,2.50
2017-11-21T10:03:11.396Z,3.20
2017-11-21T10:05:39.707Z,2.57
2017-11-21T10:08:07.967Z,3.60
2017-11-21T10:10:36.256Z,3.60
2017-11-21T10:13:04.625Z,4.10
2017-11-21T10:15:32.979Z,4.53
2017-11-21T10:18:01.329Z,5.13
2017-11-21T10:20:29.592Z,5.67
2017-11-21T10:22:58.758Z,5.10
2017-11-21T10:25:27.041Z,5.90
2017-11-21T10:27:55.385Z,4.60
2017-11-21T10:30:23.718Z,6.63
2017-11-21T10:32:52.047Z,5.57
2017-11-21T10:35:21.270Z,6.20
2017-11-21T10:37:49.593Z,5.60
2017-11-21T10:40:17.862Z,6.77
2017-11-21T10:42:47.773Z,6.47
2017-11-21T10:45:16.005Z,6.10
2017-11-21T10:47:44.592Z,7.20
2017-11-21T10:50:13.704Z,6.43
2017-11-21T10:52:42.115Z,6.57
2017-11-21T10:55:10.377Z,6.40
2017-11-21T10:57:38.725Z,7.10
2017-11-21T11:00:07.016Z,6.13
2017-11-21T11:02:35.350Z,6.37
2017-11-21T11:05:03.648Z,6.40
2017-11-21T11:07:31.917Z,6.40
2017-11-21T11:10:00.229Z,6.60
2017-11-21T11:12:28.514Z,6.70
2017-11-21T11:14:56.857Z,6.67
2017-11-21T11:17:25.112Z,7.67
2017-11-21T11:19:53.409Z,4.73
2017-11-21T11:22:21.737Z,5.63
2017-11-21T11:24:50.005Z,5.53
2017-11-21T11:27:18.295Z,6.00
2017-11-21T11:29:46.719Z,5.90
2017-11-21T11:32:14.989Z,4.43
2017-11-21T11:34:43.267Z,5.30
2017-11-21T11:37:11.536Z,5.10
2017-11-21T11:39:40.468Z,5.67
2017-11-21T11:42:08.737Z,5.77
2017-11-21T11:44:37.017Z,5.83
2017-11-21T11:47:05.288Z,5.03
2017-11-21T11:49:33.632Z,6.20
2017-11-21T11:52:02.946Z,5.90
2017-11-21T11:54:31.253Z,6.00
2017-11-21T11:56:59.539Z,6.07
2017-11-21T11:59:27.797Z,6.87
2017-11-21T12:01:56.066Z,6.13
2017-11-21T12:04:24.396Z,7.20
2017-11-21T12:06:52.775Z,7.17
2017-11-21T12:09:21.107Z,7.30
2017-11-21T12:11:49.356Z,8.00
2017-11-21T12:14:17.642Z,8.40
2017-11-21T12:16:45.952Z,8.00
2017-11-21T12:19:14.216Z,8.63
2017-11-21T12:21:42.583Z,8.70
2017-11-21T12:24:10.904Z,8.57
2017-11-21T12:26:39.230Z,7.27
2017-11-21T12:29:07.509Z,9.30
2017-11-21T12:31:35.873Z,9.03
2017-11-21T12:34:04.709Z,12.32
2017-11-21T12:36:32.972Z,8.87
2017-11-21T12:39:01.277Z,9.07
2017-11-21T12:41:29.591Z,7.23
2017-11-21T12:43:58.889Z,9.20
2017-11-21T12:46:27.194Z,9.80
2017-11-21T12:48:55.536Z,10.67
2017-11-21T12:51:23.833Z,9.80
2017-11-21T12:53:52.093Z,10.20
2017-11-21T12:56:21.198Z,9.30
2017-11-21T12:58:49.481Z,7.83
2017-11-21T13:01:17.827Z,10.80
2017-11-21T13:03:46.562Z,9.97
2017-11-21T13:06:14.814Z,9.17
2017-11-21T13:08:43.223Z,9.60
2017-11-21T13:11:11.549Z,9.40
2017-11-21T13:13:39.940Z,9.80
2017-11-21T13:16:08.237Z,9.60
2017-11-21T13:18:36.625Z,9.63
2017-11-21T13:21:06.511Z,8.65
2017-11-21T13:23:34.810Z,8.53
2017-11-21T13:26:04.112Z,8.63
2017-11-21T13:28:32.451Z,9.27
2017-11-21T13:31:00.759Z,9.70
2017-11-21T13:33:29.057Z,10.73
2017-11-21T13:35:57.317Z,11.27
2017-11-21T13:38:25.644Z,9.80
2017-11-21T13:40:53.962Z,9.20
2017-11-21T13:43:22.253Z,10.70
2017-11-21T13:45:50.564Z,11.00
2017-11-21T13:48:18.854Z,9.63
2017-11-21T13:50:47.159Z,9.97
2017-11-21T13:53:15.485Z,9.73
2017-11-21T13:55:43.816Z,7.17
2017-11-21T13:58:12.090Z,11.50
2017-11-21T14:00:40.418Z,9.10
2017-11-21T14:03:08.739Z,11.07
2017-11-21T14:05:36.998Z,9.53
2017-11-21T14:08:05.446Z,9.40
2017-11-21T14:10:33.697Z,11.00
2017-11-21T14:13:02.798Z,10.50
2017-11-21T14:15:31.091Z,11.27
2017-11-21T14:17:59.419Z,11.77
2017-11-21T14:20:27.709Z,9.30
2017-11-21T14:22:56.181Z,11.33
2017-11-21T14:25:24.458Z,9.63
2017-11-21T14:27:52.839Z,12.93
2017-11-21T14:30:21.123Z,12.02
2017-11-21T14:32:49.415Z,11.60
2017-11-21T14:35:17.717Z,11.43
2017-11-21T14:37:45.984Z,11.50
2017-11-21T14:40:14.285Z,11.17
2017-11-21T14:42:42.616Z,11.43
2017-11-21T14:45:10.971Z,8.32
2017-11-21T14:47:39.355Z,8.93
2017-11-21T14:50:08.449Z,11.20
2017-11-21T14:52:36.768Z,10.80
2017-11-21T14:55:05.710Z,11.18
2017-11-21T14:57:34.010Z,11.17
2017-11-21T15:00:03.287Z,11.77
2017-11-21T15:02:31.574Z,12.15
2017-11-21T15:04:59.910Z,11.43
2017-11-21T15:07:28.204Z,11.17
2017-11-21T15:09:56.546Z,10.85
2017-11-21T15:12:24.889Z,11.47
2017-11-21T15:14:53.173Z,12.20
2017-11-21T15:17:21.460Z,11.80
2017-11-21T15:19:49.787Z,12.53
2017-11-21T15:22:18.155Z,11.98
2017-11-21T15:24:46.693Z,10.73
2017-11-21T15:27:15.064Z,11.80
2017-11-21T15:29:43.802Z,12.70
2017-11-21T15:32:12.104Z,11.70
2017-11-21T15:34:40.619Z,13.00
2017-11-21T15:37:08.934Z,12.40
2017-11-21T15:39:38.033Z,12.63
2017-11-21T15:42:07.228Z,12.20
2017-11-21T15:44:35.587Z,11.40
2017-11-21T15:47:05.040Z,12.30
2017-11-21T15:49:33.320Z,12.60
2017-11-21T15:52:01.703Z,12.33
2017-11-21T15:54:29.973Z,10.67
2017-11-21T15:56:58.278Z,11.70
2017-11-21T15:59:26.597Z,11.57
2017-11-21T16:01:54.913Z,11.43
2017-11-21T16:04:23.206Z,11.40
2017-11-21T16:06:51.493Z,12.13
2017-11-21T16:09:19.843Z,10.55
2017-11-21T16:11:48.115Z,11.20
2017-11-21T16:14:16.407Z,11.48
2017-11-21T16:16:44.773Z,13.20
2017-11-21T16:19:13.057Z,12.33
2017-11-21T16:21:41.409Z,11.30
2017-11-21T16:24:09.759Z,10.80
2017-11-21T16:26:38.049Z,12.30
2017-11-21T16:29:06.381Z,12.63
2017-11-21T16:31:34.636Z,13.30
2017-11-21T16:34:03.052Z,11.20
2017-11-21T16:36:31.340Z,13.20
2017-11-21T16:38:59.626Z,12.30
2017-11-21T16:41:27.879Z,13.40
2017-11-21T16:43:56.509Z,11.57
2017-11-21T16:46:24.785Z,10.70
2017-11-21T16:48:53.107Z,10.70
2017-11-21T16:51:21.377Z,11.55
2017-11-21T16:53:49.656Z,10.87
2017-11-21T16:56:17.949Z,11.50
2017-11-21T16:58:46.286Z,11.98
2017-11-21T17:01:14.578Z,10.73
2017-11-21T17:03:42.932Z,11.77
2017-11-21T17:06:11.191Z,11.65
2017-11-21T17:08:39.485Z,12.60
2017-11-21T17:11:07.805Z,12.20
2017-11-21T17:13:36.050Z,12.43
2017-11-21T17:16:05.316Z,10.32
2017-11-21T17:18:33.629Z,11.70
2017-11-21T17:21:01.866Z,11.93
2017-11-21T17:23:30.199Z,11.73
2017-11-21T17:25:58.540Z,10.97
2017-11-21T17:28:27.771Z,10.73
2017-11-21T17:30:56.089Z,10.20
2017-11-21T17:33:24.373Z,9.60
2017-11-21T17:35:52.642Z,8.80
2017-11-21T17:38:20.943Z,8.37
2017-11-21T17:40:49.306Z,9.80
2017-11-21T17:43:17.680Z,10.40
2017-11-21T17:45:46.098Z,10.70
2017-11-21T17:48:14.357Z,7.97
2017-11-21T17:50:42.653Z,9.03
2017-11-21T17:53:11.893Z,8.80
2017-11-21T17:55:40.188Z,8.00
2017-11-21T17:58:08.488Z,7.60
2017-11-21T18:00:36.773Z,7.10
2017-11-21T18:03:05.463Z,8.35
2017-11-21T18:05:33.749Z,7.33
2017-11-21T18:08:02.103Z,7.10
2017-11-21T18:10:30.457Z,8.43
2017-11-21T18:12:58.790Z,8.13
2017-11-21T18:15:27.105Z,6.67
2017-11-21T18:17:55.403Z,6.40
2017-11-21T18:20:23.684Z,7.00
2017-11-21T18:22:51.985Z,7.87
2017-11-21T18:25:20.295Z,6.65
2017-11-21T18:27:48.581Z,7.33
2017-11-21T18:30:16.859Z,6.00
2017-11-21T18:35:39.932Z,5.83
2017-11-21T18:38:08.257Z,5.77
2017-11-21T18:40:36.567Z,5.77
2017-11-21T18:43:04.871Z,6.60
2017-11-21T18:45:33.142Z,7.00
2017-11-21T18:48:01.551Z,6.80
2017-11-21T18:50:29.809Z,6.90
2017-11-21T18:52:58.109Z,6.00
2017-11-21T18:55:26.403Z,6.00
2017-11-21T18:57:54.664Z,5.95
2017-11-21T19:00:22.949Z,5.23
2017-11-21T19:02:51.301Z,5.00
2017-11-21T19:05:19.595Z,6.63
2017-11-21T19:07:47.886Z,5.40
2017-11-21T19:10:16.185Z,6.30
2017-11-21T19:12:44.492Z,5.43
2017-11-21T19:15:12.776Z,4.40
2017-11-21T19:17:41.154Z,4.65
2017-11-21T19:20:09.435Z,6.20
2017-11-21T19:22:37.792Z,6.20
2017-11-21T19:25:06.371Z,4.57
2017-11-21T19:27:34.668Z,5.93
2017-11-21T19:30:03.022Z,5.50
2017-11-21T19:32:31.364Z,5.93
2017-11-21T19:34:59.633Z,5.97
2017-11-21T19:37:27.884Z,5.83
2017-11-21T19:39:56.191Z,5.72
2017-11-21T19:42:24.458Z,5.83
2017-11-21T19:44:52.790Z,6.03
2017-11-21T19:47:21.024Z,6.00
2017-11-21T19:49:49.312Z,6.13
2017-11-21T19:52:17.600Z,6.60
2017-11-21T19:54:45.980Z,6.50
2017-11-21T19:57:14.360Z,7.03
2017-11-21T19:59:42.736Z,6.60
2017-11-21T20:02:11.019Z,5.90
2017-11-21T20:04:39.277Z,5.67
2017-11-21T20:07:07.582Z,6.60
2017-11-21T20:09:35.898Z,7.30
2017-11-21T20:12:04.277Z,6.40
2017-11-21T20:14:32.589Z,6.90
2017-11-21T20:17:00.845Z,6.60
2017-11-21T20:19:29.117Z,7.27
2017-11-21T20:21:57.451Z,7.00
2017-11-21T20:24:25.763Z,7.50
2017-11-21T20:26:54.084Z,7.05
2017-11-21T20:29:22.416Z,6.62
2017-11-21T20:31:50.706Z,7.60
2017-11-21T20:34:19.004Z,7.10
2017-11-21T20:36:47.284Z,7.60
2017-11-21T20:39:15.620Z,6.90
2017-11-21T20:41:43.896Z,7.10
2017-11-21T20:44:12.220Z,5.50
2017-11-21T20:46:40.500Z,6.43
2017-11-21T20:49:08.819Z,6.87
2017-11-21T20:51:37.138Z,6.50
2017-11-21T20:54:05.424Z,6.00
2017-11-21T20:56:34.201Z,6.90
2017-11-21T20:59:02.480Z,6.70
2017-11-21T21:01:30.802Z,6.40
2017-11-21T21:03:59.068Z,6.78
2017-11-21T21:06:27.375Z,6.87
2017-11-21T21:08:55.670Z,7.40
2017-11-21T21:11:23.947Z,6.50
2017-11-21T21:13:52.218Z,6.90
2017-11-21T21:16:20.499Z,7.28
2017-11-21T21:18:48.826Z,6.73
2017-11-21T21:21:17.105Z,6.50
2017-11-21T21:23:45.413Z,7.23
2017-11-21T21:26:13.720Z,7.27
2017-11-21T21:28:42.012Z,6.27
2017-11-21T21:31:10.296Z,5.97
2017-11-21T21:33:38.602Z,5.80
2017-11-21T21:36:06.875Z,6.30
2017-11-21T21:38:35.171Z,6.47
2017-11-21T21:41:03.496Z,6.00
2017-11-21T21:43:32.448Z,6.80
2017-11-21T21:46:01.042Z,6.13
2017-11-21T21:48:29.296Z,5.90
2017-11-21T21:50:57.616Z,5.63
2017-11-21T21:53:27.084Z,5.40
2017-11-21T21:55:55.433Z,6.73
2017-11-21T21:58:23.686Z,6.13
2017-11-21T22:00:51.999Z,6.40
2017-11-21T22:03:20.243Z,6.62
2017-11-21T22:05:48.534Z,7.12
2017-11-21T22:08:16.837Z,6.40
2017-11-21T22:10:45.126Z,6.70
2017-11-21T22:13:13.461Z,6.70
2017-11-21T22:15:41.806Z,6.80
2017-11-21T22:18:10.258Z,7.40
2017-11-21T22:20:38.524Z,7.17
2017-11-21T22:23:06.828Z,6.57
2017-11-21T22:25:35.082Z,6.57
2017-11-21T22:28:04.284Z,7.00
2017-11-21T22:30:32.552Z,6.80
2017-11-21T22:33:00.841Z,6.50
2017-11-21T22:35:29.176Z,7.57
2017-11-21T22:37:57.460Z,7.77
2017-11-21T22:40:25.786Z,7.60
2017-11-21T22:42:54.028Z,6.57
2017-11-21T22:45:22.356Z,8.27
2017-11-21T22:47:50.627Z,7.80
2017-11-21T22:50:18.924Z,6.32
2017-11-21T22:52:47.184Z,8.10
2017-11-21T22:55:15.488Z,6.75
2017-11-21T22:57:43.756Z,7.60
2017-11-21T23:00:12.015Z,8.02
2017-11-21T23:02:40.306Z,8.20
2017-11-21T23:05:08.608Z,8.03
2017-11-21T23:07:37.045Z,8.70
2017-11-21T23:10:05.426Z,8.20
2017-11-21T23:12:33.720Z,8.07
2017-11-21T23:15:02.001Z,8.10
2017-11-21T23:17:30.552Z,8.27
2017-11-21T23:19:58.804Z,8.27
2017-11-21T23:22:27.072Z,8.87
2017-11-21T23:24:55.368Z,8.60
2017-11-21T23:27:23.685Z,8.10
2017-11-21T23:29:51.966Z,8.20
2017-11-21T23:32:20.992Z,8.90
2017-11-21T23:34:49.293Z,8.80
2017-11-21T23:37:17.560Z,7.78
2017-11-21T23:39:45.892Z,7.87
2017-11-21T23:42:14.188Z,8.30
2017-11-21T23:44:42.480Z,9.15
2017-11-21T23:47:10.766Z,8.80
2017-11-21T23:49:39.025Z,8.63
2017-11-21T23:52:07.665Z,8.73
2017-11-21T23:54:35.989Z,8.70
2017-11-21T23:57:04.300Z,8.70
2017-11-21T23:59:32.575Z,10.00
